GFLL Airport Information

Runway Information
Runway 12 Length 10498 ft width 150 ft
Elevation 78 ft Threshold ft Heading 107
Runway 30 Length 10498 ft Width 150 ft
Elevation 82 ft Threshold ft Heading 287
Airport Frequencies
Type A/G Name A/G VOICE Frequency 667.3 MHZ
Type APP Name APP Frequency 119.1 MHZ
Type GND Name GND Frequency 121.9 MHZ
Type TWR Name TWR Frequency 118.1 MHZ
Airport Navaids
Type VOR-DME Name Freetown Lungi Frequency 115500 KHZ
Type NDB Name Freetown Lungi Frequency 339 KHZ
Type NDB Name Freetown Lungi Frequency 270 KHZ
Airport Weather Information & NOTAM
ADDS - METARS form results

(1658 UTC 07 July 2022)
Data provider http://aviationweather.gov/metar/data/
 
METAR text: GFLL 071600Z 27006KT 9999 BKN012 FEW027CB 28/24 Q1013 RMK CB NE/NW
Conditions at: GFLL (FREETOWN/LUNGI , SL) observed 1600 UTC 07 July 2022
Temperature: 28.0°C (82°F)
Dewpoint: 24.0°C (75°F) [RH = 79%]
Pressure (altimeter): 29.91 inches Hg (1013.0 mb)
Winds: from the W (270 degrees) at 7 MPH (6 knots; 3.1 m/s)
Visibility: 6 or more miles (10+ km)
Ceiling: 1200 feet AGL
Clouds: broken clouds at 1200 feet AGL
few clouds at 2700 feet AGL
Weather: no significant weather observed at this time